Time;durP1;ratioP1;P1;durP2;ratioP2;P2;SDS_P1;SDS_P2;PMS_P1;PMS_P2;Temp;Humidity;BMP_temperature;BMP_pressure;BME280_temperature;BME280_humidity;BME280_pressure;Samples;Min_cycle;Max_cycle;Signal;HPM_P1;HPM_P2
2022/10/27 00:00:31;;;;;;;12.38;7.03;;;;;;;10.24;58.11;102053.44;5045721;28;20048;-71
2022/10/27 00:02:56;;;;;;;9.60;6.40;;;;;;;10.20;57.82;102060.47;5032386;28;20311;-71
2022/10/27 00:05:22;;;;;;;8.32;6.35;;;;;;;10.12;57.66;102059.72;5045138;28;20031;-71
2022/10/27 00:07:48;;;;;;;7.80;6.10;;;;;;;10.01;57.44;102059.97;5029241;28;20075;-72
2022/10/27 00:10:14;;;;;;;7.45;4.97;;;;;;;9.89;57.26;102069.75;5043114;28;20033;-70
2022/10/27 00:12:39;;;;;;;10.27;6.53;;;;;;;9.83;57.56;102059.44;5044024;28;20056;-72
2022/10/27 00:15:05;;;;;;;8.52;6.30;;;;;;;9.76;57.32;102069.94;5046035;28;20037;-71
2022/10/27 00:17:31;;;;;;;10.65;6.88;;;;;;;9.71;57.45;102070.91;5025995;28;20052;-71
2022/10/27 00:19:56;;;;;;;10.93;6.32;;;;;;;9.65;57.76;102073.63;5042249;28;20136;-72
2022/10/27 00:22:22;;;;;;;9.15;6.05;;;;;;;9.63;58.01;102078.00;5043559;28;20208;-70
2022/10/27 00:24:47;;;;;;;8.88;7.15;;;;;;;9.58;57.82;102086.78;5032730;28;20061;-71
2022/10/27 00:27:13;;;;;;;10.95;6.40;;;;;;;9.56;57.82;102087.69;5017568;28;20040;-71
2022/10/27 00:29:39;;;;;;;8.65;6.28;;;;;;;9.56;57.66;102087.69;5034412;28;20025;-71
2022/10/27 00:32:05;;;;;;;8.98;6.28;;;;;;;9.55;57.45;102088.59;5021980;28;20599;-71
2022/10/27 00:34:30;;;;;;;9.90;6.65;;;;;;;9.47;58.38;102085.22;5034583;28;20036;-71
2022/10/27 00:36:55;;;;;;;8.48;6.55;;;;;;;9.51;57.71;102094.75;5031368;28;20049;-71
2022/10/27 00:39:21;;;;;;;9.02;5.93;;;;;;;9.44;57.62;102093.13;5025782;28;20557;-71
2022/10/27 00:41:46;;;;;;;6.93;6.03;;;;;;;9.43;57.56;102091.38;5019685;28;20459;-70
2022/10/27 00:44:35;;;;;;;10.18;5.72;;;;;;;9.37;57.89;102089.75;5016955;28;20060;-71
2022/10/27 00:47:04;;;;;;;12.20;7.78;;;;;;;9.45;58.47;102094.84;5031214;28;20050;-71
2022/10/27 00:49:34;;;;;;;10.82;7.18;;;;;;;9.53;58.93;102092.97;5035011;28;20052;-71
2022/10/27 00:52:05;;;;;;;13.57;7.93;;;;;;;9.56;58.96;102098.97;5017059;28;20582;-72
2022/10/27 00:54:36;;;;;;;10.82;7.22;;;;;;;9.67;59.49;102106.66;5017339;28;20091;-71
2022/10/27 00:57:04;;;;;;;11.35;7.40;;;;;;;9.76;59.54;102096.03;5033840;28;20486;-72
2022/10/27 00:59:29;;;;;;;7.03;6.32;;;;;;;9.82;59.25;102099.50;5035618;28;20056;-71
2022/10/27 01:01:55;;;;;;;13.65;7.68;;;;;;;9.84;59.00;102105.56;5032638;28;20506;-71
2022/10/27 01:04:36;;;;;;;16.25;8.73;;;;;;;9.84;59.13;102105.56;5031223;28;20435;-71
2022/10/27 01:07:01;;;;;;;13.38;7.68;;;;;;;9.83;59.93;102103.81;5028442;28;20068;-71
2022/10/27 01:09:28;;;;;;;10.85;7.65;;;;;;;9.83;59.59;102102.06;5011544;28;20041;-70
2022/10/27 01:11:53;;;;;;;13.05;7.25;;;;;;;9.77;59.91;102103.00;5018707;28;20050;-71
2022/10/27 01:14:19;;;;;;;12.98;7.30;;;;;;;9.90;59.08;102105.44;5010570;28;20032;-71
2022/10/27 01:17:02;;;;;;;11.75;6.47;;;;;;;9.86;59.10;102103.78;5000505;28;20040;-71
2022/10/27 01:20:00;;;;;;;9.60;6.63;;;;;;;9.83;59.22;102116.88;5025699;28;20037;-71
2022/10/27 01:22:34;;;;;;;20.65;8.93;;;;;;;9.77;60.05;102120.44;5026747;28;20126;-71
2022/10/27 01:25:09;;;;;;;13.75;7.60;;;;;;;9.76;60.00;102124.75;5027801;28;20025;-71
2022/10/27 01:27:52;;;;;;;13.50;6.88;;;;;;;9.84;59.58;102118.59;5026477;28;20052;-72
2022/10/27 01:30:20;;;;;;;14.88;8.25;;;;;;;9.82;59.63;102125.59;5029046;28;20178;-72
2022/10/27 01:32:54;;;;;;;9.43;6.35;;;;;;;9.82;59.05;102123.84;5009763;28;20132;-71
2022/10/27 01:35:26;;;;;;;9.52;5.85;;;;;;;9.75;58.96;102125.66;5011771;28;20123;-71
2022/10/27 01:38:01;;;;;;;11.90;6.68;;;;;;;9.67;59.15;102124.91;5027712;28;20077;-71
2022/10/27 01:40:38;;;;;;;13.95;6.43;;;;;;;9.61;59.01;102127.66;5016047;28;20039;-71
2022/10/27 01:43:13;;;;;;;9.70;6.55;;;;;;;9.57;58.77;102131.19;5027410;28;20037;-71
2022/10/27 01:45:40;;;;;;;13.80;6.32;;;;;;;9.57;58.92;102141.63;5026879;28;20025;-71
2022/10/27 01:48:08;;;;;;;10.82;6.05;;;;;;;9.51;58.88;102141.72;5012128;28;20053;-72
2022/10/27 01:50:38;;;;;;;9.60;6.22;;;;;;;9.50;58.61;102142.59;5011951;28;20585;-71
2022/10/27 01:53:04;;;;;;;10.73;5.32;;;;;;;9.45;58.47;102137.44;5021234;28;20064;-72
2022/10/27 01:55:34;;;;;;;7.88;5.68;;;;;;;9.37;58.27;102145.41;5026382;28;20037;-71
2022/10/27 01:58:15;;;;;;;10.93;5.20;;;;;;;9.35;58.55;102141.09;5012224;28;20038;-72
2022/10/27 02:01:06;;;;;;;6.28;5.30;;;;;;;9.30;58.25;102149.00;5025323;28;20024;-72
2022/10/27 02:03:39;;;;;;;9.48;4.60;;;;;;;9.24;58.74;102151.69;5012705;28;20094;-71
2022/10/27 02:06:15;;;;;;;10.48;5.38;;;;;;;9.21;58.75;102159.56;5010392;28;20051;-71
2022/10/27 02:08:51;;;;;;;10.10;5.50;;;;;;;9.24;58.75;102159.50;5027434;28;20071;-72
2022/10/27 02:11:17;;;;;;;10.75;6.38;;;;;;;9.23;58.90;102151.69;5027548;28;20128;-71
2022/10/27 02:13:45;;;;;;;8.95;5.60;;;;;;;9.20;59.08;102152.59;5009721;28;20112;-71
2022/10/27 02:16:18;;;;;;;8.23;5.32;;;;;;;9.25;59.17;102161.22;5017805;28;20100;-71
2022/10/27 02:18:50;;;;;;;7.88;6.15;;;;;;;9.26;59.58;102162.09;5025897;28;20457;-71
2022/10/27 02:21:18;;;;;;;12.60;5.82;;;;;;;9.34;59.60;102155.91;5024528;28;20359;-71
2022/10/27 02:23:44;;;;;;;7.43;6.05;;;;;;;9.39;59.13;102156.69;5024670;28;20045;-71
2022/10/27 02:26:18;;;;;;;18.15;7.75;;;;;;;9.43;59.81;102161.84;5024889;28;20040;-71
2022/10/27 02:28:54;;;;;;;7.10;5.72;;;;;;;9.42;59.34;102157.53;5008888;28;20128;-71
2022/10/27 02:31:25;;;;;;;11.40;6.28;;;;;;;9.45;59.62;102155.72;5025270;28;20091;-72
2022/10/27 02:33:52;;;;;;;13.80;7.00;;;;;;;9.49;59.78;102160.00;5024998;28;20063;-72
2022/10/27 02:36:17;;;;;;;8.93;6.25;;;;;;;9.46;60.18;102167.88;5025908;28;20263;-71
2022/10/27 02:38:43;;;;;;;15.85;7.32;;;;;;;9.39;60.24;102164.50;5007751;28;20441;-72
2022/10/27 02:41:08;;;;;;;10.65;6.68;;;;;;;9.50;59.82;102171.28;5010707;28;20048;-71
2022/10/27 02:43:34;;;;;;;16.00;6.78;;;;;;;9.53;59.73;102179.09;5027030;28;20053;-71
2022/10/27 02:45:59;;;;;;;11.38;7.30;;;;;;;9.46;59.54;102173.09;5025616;28;20040;-71
2022/10/27 02:48:25;;;;;;;8.35;6.68;;;;;;;9.15;61.96;102177.91;5009899;28;20045;-72
2022/10/27 02:50:50;;;;;;;11.32;7.20;;;;;;;9.43;60.41;102182.72;5008671;28;20030;-71
2022/10/27 02:53:15;;;;;;;13.70;7.00;;;;;;;9.50;60.01;102186.97;5015272;28;20041;-71
2022/10/27 02:55:41;;;;;;;13.38;6.85;;;;;;;9.51;60.01;102183.47;5024769;28;20017;-71
2022/10/27 02:58:06;;;;;;;12.07;6.45;;;;;;;9.48;59.69;102183.53;5027675;28;20183;-71
2022/10/27 03:00:32;;;;;;;8.65;5.88;;;;;;;9.46;59.42;102190.53;5009457;28;20033;-72
2022/10/27 03:02:57;;;;;;;6.18;5.35;;;;;;;9.46;59.39;102188.78;4998716;28;20525;-71
2022/10/27 03:05:22;;;;;;;12.23;6.85;;;;;;;9.43;59.53;102190.53;5010114;28;20322;-72
2022/10/27 03:07:48;;;;;;;12.07;6.88;;;;;;;9.44;59.43;102194.91;5008322;28;20041;-71
2022/10/27 03:10:13;;;;;;;8.13;5.22;;;;;;;9.35;59.36;102194.13;5027757;28;20251;-72
2022/10/27 03:12:39;;;;;;;10.10;5.57;;;;;;;9.33;59.34;102190.69;5024077;28;20037;-72
2022/10/27 03:15:05;;;;;;;8.88;4.93;;;;;;;9.32;59.22;102188.97;5013884;28;20029;-72
2022/10/27 03:17:30;;;;;;;7.93;6.43;;;;;;;9.27;59.36;102200.34;5027129;28;20046;-72
2022/10/27 03:19:56;;;;;;;14.13;7.07;;;;;;;9.14;59.70;102197.91;5025582;28;20037;-72
2022/10/27 03:22:21;;;;;;;9.57;5.53;;;;;;;9.21;59.40;102201.28;5025918;28;20063;-72
2022/10/27 03:24:47;;;;;;;15.85;6.63;;;;;;;9.24;59.97;102205.59;5019176;28;20037;-72
2022/10/27 03:27:12;;;;;;;12.43;6.43;;;;;;;9.27;60.00;102195.13;5013625;28;20223;-72
2022/10/27 03:29:37;;;;;;;8.70;6.07;;;;;;;9.32;60.17;102194.19;5014333;28;20033;-73
2022/10/27 03:32:03;;;;;;;12.98;6.88;;;;;;;9.38;59.85;102194.06;5035509;28;20055;-72
2022/10/27 03:34:28;;;;;;;9.43;5.90;;;;;;;9.40;59.77;102194.91;5018585;28;20098;-72
2022/10/27 03:36:54;;;;;;;11.95;5.85;;;;;;;9.39;59.83;102185.38;5013294;28;20187;-72
2022/10/27 03:39:19;;;;;;;11.43;7.20;;;;;;;9.39;60.02;102190.59;5005386;28;20075;-72
2022/10/27 03:41:45;;;;;;;13.13;7.25;;;;;;;9.38;60.48;102190.63;5029604;28;20183;-72
2022/10/27 03:44:10;;;;;;;10.02;6.35;;;;;;;9.49;60.13;102193.06;5031948;28;20036;-73
2022/10/27 03:46:36;;;;;;;11.90;6.60;;;;;;;9.50;59.90;102194.78;4996777;28;20029;-71
2022/10/27 03:49:01;;;;;;;11.10;7.07;;;;;;;9.49;59.82;102187.84;5028996;28;20374;-72
2022/10/27 03:51:27;;;;;;;7.28;5.40;;;;;;;9.49;59.53;102190.47;5012912;28;20038;-72
2022/10/27 03:53:53;;;;;;;8.70;5.38;;;;;;;9.45;59.73;102199.22;5010664;28;20458;-71
2022/10/27 03:56:18;;;;;;;9.95;5.28;;;;;;;9.39;59.81;102198.44;5023626;28;20053;-71
2022/10/27 03:58:44;;;;;;;7.47;6.07;;;;;;;9.40;59.52;102191.47;5018724;28;20037;-72
2022/10/27 04:01:10;;;;;;;10.60;6.15;;;;;;;9.39;59.99;102185.38;5004457;28;20340;-71
2022/10/27 04:03:36;;;;;;;8.70;5.85;;;;;;;9.42;59.81;102199.28;5026530;28;20223;-71
2022/10/27 04:06:01;;;;;;;9.23;5.95;;;;;;;9.36;59.58;102208.88;5010294;28;20499;-72
2022/10/27 04:08:27;;;;;;;9.23;6.70;;;;;;;9.37;59.61;102202.81;5012797;28;20045;-72
2022/10/27 04:10:52;;;;;;;11.95;6.32;;;;;;;9.32;59.67;102204.63;5010998;28;20051;-72
2022/10/27 04:13:18;;;;;;;10.45;6.28;;;;;;;9.40;59.84;102213.19;5028144;28;20091;-72
2022/10/27 04:15:43;;;;;;;13.27;6.40;;;;;;;9.38;59.74;102204.50;5030383;28;20033;-71
2022/10/27 04:18:10;;;;;;;8.65;5.57;;;;;;;9.38;59.51;102209.72;5009831;28;20060;-71
2022/10/27 04:20:35;;;;;;;13.18;6.38;;;;;;;9.38;59.97;102201.91;5030923;28;20052;-71
2022/10/27 04:23:01;;;;;;;8.43;5.78;;;;;;;9.40;59.64;102207.13;5025228;28;20588;-71
2022/10/27 04:25:27;;;;;;;8.63;6.35;;;;;;;9.38;60.18;102199.28;5029194;28;20420;-72
2022/10/27 04:28:03;;;;;;;11.35;6.57;;;;;;;9.56;60.40;102194.72;5027953;28;20037;-72
2022/10/27 04:30:29;;;;;;;12.73;6.40;;;;;;;9.64;60.43;102192.84;5029449;28;20059;-72
2022/10/27 04:32:55;;;;;;;8.05;6.25;;;;;;;9.67;60.27;102184.97;5013334;28;20164;-72
2022/10/27 04:35:20;;;;;;;14.05;5.97;;;;;;;9.63;59.84;102193.72;5029333;28;20025;-70
2022/10/27 04:37:46;;;;;;;11.23;6.32;;;;;;;9.58;59.87;102185.09;5027330;28;20516;-71
2022/10/27 04:40:11;;;;;;;10.20;5.93;;;;;;;9.54;59.97;102181.69;5030132;28;20045;-72
2022/10/27 04:42:37;;;;;;;12.27;6.90;;;;;;;9.49;60.10;102186.09;5011270;28;20053;-72
2022/10/27 04:45:02;;;;;;;15.63;6.60;;;;;;;9.48;60.31;102188.75;5011136;28;20036;-72
2022/10/27 04:47:28;;;;;;;8.80;6.35;;;;;;;9.48;60.11;102183.53;5027006;28;20045;-71
2022/10/27 04:49:53;;;;;;;12.00;6.95;;;;;;;9.46;60.15;102174.88;5026411;28;20041;-70
2022/10/27 04:52:19;;;;;;;17.48;6.45;;;;;;;9.42;60.11;102179.25;5010972;28;20069;-71
2022/10/27 04:54:44;;;;;;;9.73;5.75;;;;;;;9.38;59.98;102183.63;5028140;28;20040;-73
2022/10/27 04:57:10;;;;;;;6.38;4.72;;;;;;;9.34;59.58;102176.78;5027256;28;20571;-73
2022/10/27 04:59:35;;;;;;;8.95;5.72;;;;;;;9.31;59.79;102175.94;5013775;28;20040;-71
2022/10/27 05:02:00;;;;;;;7.72;5.40;;;;;;;9.31;59.73;102171.56;5018511;28;20127;-70
2022/10/27 05:04:26;;;;;;;7.22;5.38;;;;;;;9.31;59.79;102176.78;5027490;28;20091;-73
2022/10/27 05:06:51;;;;;;;7.50;5.28;;;;;;;9.32;59.67;102188.09;5030379;28;20042;-73
2022/10/27 05:09:17;;;;;;;8.70;5.35;;;;;;;9.36;59.93;102182.78;5028259;28;20039;-73
2022/10/27 05:11:42;;;;;;;9.82;4.80;;;;;;;9.36;59.70;102184.56;5026769;28;20034;-70
2022/10/27 05:14:08;;;;;;;9.82;5.35;;;;;;;9.40;59.74;102186.25;5025963;28;20626;-71
2022/10/27 05:16:33;;;;;;;9.80;5.72;;;;;;;9.43;59.31;102185.31;5030849;28;20025;-70
2022/10/27 05:18:58;;;;;;;8.93;4.75;;;;;;;9.43;59.78;102187.94;5011663;28;20045;-71
2022/10/27 05:21:24;;;;;;;8.80;5.13;;;;;;;9.43;59.67;102193.16;5030488;28;20029;-71
2022/10/27 05:23:49;;;;;;;6.97;5.00;;;;;;;9.49;60.18;102185.25;5026574;28;20040;-72
2022/10/27 05:26:15;;;;;;;7.72;5.35;;;;;;;9.55;59.82;102190.38;5010404;28;20517;-72
2022/10/27 05:28:42;;;;;;;11.65;5.82;;;;;;;9.52;59.79;102187.81;5029128;28;20049;-72
2022/10/27 05:31:08;;;;;;;9.77;5.15;;;;;;;9.54;59.45;102189.53;4999219;28;20025;-72
2022/10/27 05:33:33;;;;;;;8.07;5.05;;;;;;;9.58;59.80;102185.09;5026924;28;22295;-72
2022/10/27 05:35:59;;;;;;;9.43;4.90;;;;;;;9.51;59.62;102188.69;5026737;28;20422;-72
2022/10/27 05:38:24;;;;;;;8.60;5.63;;;;;;;9.49;59.46;102187.84;5009599;28;20128;-71
2022/10/27 05:40:56;;;;;;;9.30;5.03;;;;;;;9.48;59.61;102189.63;5013890;28;20055;-72
2022/10/27 05:43:22;;;;;;;10.25;6.38;;;;;;;9.44;60.04;102182.72;5026338;28;20076;-72
2022/10/27 05:45:48;;;;;;;10.90;6.25;;;;;;;9.47;59.99;102181.78;4997312;28;20033;-71
2022/10/27 05:48:13;;;;;;;6.65;5.18;;;;;;;9.46;59.54;102180.94;5012621;28;20341;-72
2022/10/27 05:50:39;;;;;;;7.38;5.43;;;;;;;9.40;59.88;102189.69;5011918;28;20021;-71
2022/10/27 05:53:04;;;;;;;10.52;5.57;;;;;;;9.45;59.51;102186.16;5010089;28;20081;-71
2022/10/27 05:55:29;;;;;;;7.72;4.82;;;;;;;9.40;59.67;102189.69;5009507;28;20119;-72
2022/10/27 05:57:58;;;;;;;6.55;4.57;;;;;;;9.39;59.75;102189.75;5007183;28;20232;-72
2022/10/27 06:00:26;;;;;;;8.95;5.40;;;;;;;9.38;59.91;102188.84;4996594;28;20178;-72
2022/10/27 06:02:55;;;;;;;7.10;5.50;;;;;;;9.40;60.21;102189.69;5002459;28;20060;-71
2022/10/27 06:05:21;;;;;;;12.23;5.60;;;;;;;9.43;59.86;102186.19;5028007;28;20034;-71
2022/10/27 06:07:47;;;;;;;8.88;6.10;;;;;;;9.48;59.82;102186.16;5025903;28;20055;-71
2022/10/27 06:10:12;;;;;;;11.30;7.68;;;;;;;9.46;60.09;102187.91;5025846;28;20029;-71
2022/10/27 06:12:38;;;;;;;17.08;7.47;;;;;;;9.52;60.65;102183.47;5026677;28;20410;-71
2022/10/27 06:15:04;;;;;;;9.60;6.78;;;;;;;9.54;60.11;102189.53;4998683;28;20037;-71
2022/10/27 06:17:29;;;;;;;12.23;6.22;;;;;;;9.54;60.14;102197.38;5027799;28;20045;-71
2022/10/27 06:19:55;;;;;;;10.25;5.78;;;;;;;9.57;60.34;102199.06;5009082;28;21346;-71
2022/10/27 06:22:20;;;;;;;11.07;5.85;;;;;;;9.62;60.09;102192.00;5010391;28;20041;-72
2022/10/27 06:24:46;;;;;;;9.45;6.15;;;;;;;9.63;60.30;102198.94;5028329;28;20029;-71
2022/10/27 06:27:11;;;;;;;7.82;4.88;;;;;;;9.68;60.20;102201.47;5028182;28;20607;-72
2022/10/27 06:29:38;;;;;;;11.40;5.53;;;;;;;9.67;60.68;102199.78;5008464;28;20068;-71
2022/10/27 06:32:03;;;;;;;7.70;5.22;;;;;;;9.76;60.66;102194.41;5028340;28;20134;-71
2022/10/27 06:34:29;;;;;;;10.05;5.38;;;;;;;9.87;60.87;102199.50;5012001;28;20159;-71
2022/10/27 06:36:54;;;;;;;10.20;5.30;;;;;;;9.99;60.90;102201.91;5011006;28;20288;-71
2022/10/27 06:39:20;;;;;;;12.85;6.68;;;;;;;10.13;60.88;102209.53;5025561;28;20224;-71
2022/10/27 06:41:45;;;;;;;13.05;6.10;;;;;;;10.20;60.42;102211.16;5016149;28;20044;-71
2022/10/27 06:44:19;;;;;;;9.80;6.65;;;;;;;10.20;60.17;102212.00;5011518;28;20037;-71
2022/10/27 06:46:44;;;;;;;9.57;5.90;;;;;;;10.22;60.62;102223.28;5008301;28;20080;-71
2022/10/27 06:49:10;;;;;;;13.40;6.60;;;;;;;10.29;60.12;102225.81;5008912;28;20044;-71
2022/10/27 06:51:35;;;;;;;13.70;6.40;;;;;;;10.38;60.54;102223.03;5026110;28;20034;-71
2022/10/27 06:54:00;;;;;;;15.82;6.50;;;;;;;10.49;60.44;102225.44;5026181;28;20437;-71
2022/10/27 06:56:26;;;;;;;9.75;5.93;;;;;;;10.40;60.70;102227.34;5023324;28;20036;-71
2022/10/27 06:58:51;;;;;;;10.10;6.10;;;;;;;10.66;60.29;102220.78;5007274;28;20091;-71
2022/10/27 07:01:17;;;;;;;12.48;6.80;;;;;;;10.67;60.33;102224.25;5026834;28;20064;-71
2022/10/27 07:03:42;;;;;;;9.02;6.20;;;;;;;10.80;60.38;102228.34;5008564;28;20041;-71
2022/10/27 07:06:08;;;;;;;10.57;6.82;;;;;;;10.87;60.15;102232.59;5024625;28;20069;-71
2022/10/27 07:08:33;;;;;;;10.23;6.18;;;;;;;10.89;60.51;102230.81;5025948;28;20131;-72
2022/10/27 07:10:58;;;;;;;11.45;6.85;;;;;;;11.03;60.34;102231.38;5027873;28;20080;-71
2022/10/27 07:13:24;;;;;;;11.82;7.78;;;;;;;11.33;60.44;102230.78;5001495;28;20109;-72
2022/10/27 07:15:49;;;;;;;13.38;7.57;;;;;;;11.36;60.52;102226.34;5031009;28;20112;-71
2022/10/27 07:18:15;;;;;;;12.45;6.75;;;;;;;12.29;59.98;102225.06;5030667;28;20503;-72
2022/10/27 07:20:43;;;;;;;15.02;6.78;;;;;;;12.66;58.00;102224.94;5032065;28;20215;-71
2022/10/27 07:23:09;;;;;;;11.13;6.57;;;;;;;12.81;57.95;102233.34;5011558;28;20057;-71
2022/10/27 07:25:35;;;;;;;18.77;7.38;;;;;;;13.01;57.34;102230.16;5011825;28;20044;-71
2022/10/27 07:28:03;;;;;;;12.30;6.93;;;;;;;13.28;57.67;102231.09;5026848;28;20065;-72
2022/10/27 07:30:31;;;;;;;9.00;5.82;;;;;;;13.23;57.25;102233.00;5015269;28;20481;-71
2022/10/27 07:32:57;;;;;;;12.18;7.50;;;;;;;13.26;56.92;102232.91;5028571;28;20041;-72
2022/10/27 07:35:23;;;;;;;14.10;6.65;;;;;;;13.47;57.15;102237.53;5029918;28;20048;-71
2022/10/27 07:37:48;;;;;;;10.93;6.65;;;;;;;13.63;55.51;102237.06;5012719;28;20136;-72
2022/10/27 07:40:16;;;;;;;14.68;6.93;;;;;;;13.84;55.85;102235.53;5029876;28;20099;-71
2022/10/27 07:42:45;;;;;;;8.45;6.00;;;;;;;13.62;55.78;102233.56;5019369;28;20045;-72
2022/10/27 07:45:12;;;;;;;11.10;7.47;;;;;;;14.12;56.10;102223.19;5031669;28;20044;-72
2022/10/27 07:47:42;;;;;;;9.75;5.43;;;;;;;14.92;54.87;102222.16;5026582;28;20503;-71
2022/10/27 07:50:07;;;;;;;8.32;6.03;;;;;;;15.20;54.05;102218.53;5017884;28;20568;-73
2022/10/27 07:52:39;;;;;;;8.38;5.10;;;;;;;15.58;51.77;102223.16;5030233;28;20044;-70
2022/10/27 07:55:05;;;;;;;9.48;4.80;;;;;;;16.44;51.84;102212.63;5030365;28;20076;-73
2022/10/27 07:57:30;;;;;;;8.63;5.25;;;;;;;16.52;49.08;102210.50;5012838;28;20132;-71
2022/10/27 07:59:56;;;;;;;7.70;4.50;;;;;;;16.46;49.77;102206.34;5029491;28;20740;-71
2022/10/27 08:02:21;;;;;;;7.90;5.47;;;;;;;16.34;49.00;102217.44;5030896;28;20110;-72
2022/10/27 08:04:47;;;;;;;7.13;4.20;;;;;;;16.53;48.44;102201.66;5030020;28;20106;-72
2022/10/27 08:07:12;;;;;;;8.25;4.80;;;;;;;16.88;48.23;102202.75;5015780;28;20144;-72
2022/10/27 08:09:38;;;;;;;7.90;4.57;;;;;;;17.22;46.19;102211.72;5012152;28;20033;-71
2022/10/27 08:12:04;;;;;;;6.93;4.25;;;;;;;17.99;45.05;102206.25;5029991;28;20033;-72
2022/10/27 08:14:29;;;;;;;9.00;3.97;;;;;;;18.64;41.94;102208.22;5027721;28;20055;-72
2022/10/27 08:16:56;;;;;;;7.75;5.13;;;;;;;18.58;41.58;102200.59;5028906;28;20045;-72
2022/10/27 08:19:21;;;;;;;9.25;4.35;;;;;;;18.29;42.70;102210.06;5012075;28;20037;-72
2022/10/27 08:21:47;;;;;;;5.10;3.83;;;;;;;18.00;42.58;102213.22;5018990;28;20385;-72
2022/10/27 08:24:12;;;;;;;8.88;3.78;;;;;;;17.79;43.16;102216.97;5037294;28;20477;-72
2022/10/27 08:26:38;;;;;;;8.10;3.78;;;;;;;17.68;44.08;102211.34;5026123;28;20041;-71
2022/10/27 08:29:03;;;;;;;7.47;3.88;;;;;;;17.69;43.34;102218.34;5032238;28;20137;-72
2022/10/27 08:31:29;;;;;;;5.70;4.45;;;;;;;17.55;44.08;102224.31;5032065;28;20029;-71
2022/10/27 08:33:54;;;;;;;8.60;4.35;;;;;;;17.47;44.46;102216.72;5031080;28;20046;-72
2022/10/27 08:36:19;;;;;;;11.10;5.38;;;;;;;17.30;44.60;102206.97;5012001;28;20040;-73
2022/10/27 08:38:45;;;;;;;6.55;3.58;;;;;;;17.08;45.17;102207.09;5011441;28;20128;-71
2022/10/27 08:41:30;;;;;;;9.52;4.20;;;;;;;17.48;44.42;102212.31;5003838;28;20033;-73
2022/10/27 08:43:55;;;;;;;8.02;4.80;;;;;;;17.10;44.68;102207.88;5027749;28;20106;-71
2022/10/27 08:46:33;;;;;;;7.47;3.90;;;;;;;16.63;45.65;102208.25;5012905;28;20044;-71
2022/10/27 08:49:03;;;;;;;5.03;3.10;;;;;;;16.29;46.39;102203.59;5011660;28;20420;-72
2022/10/27 08:51:31;;;;;;;10.05;4.25;;;;;;;16.14;47.23;102200.69;5028693;28;20033;-71
2022/10/27 08:53:57;;;;;;;9.20;3.85;;;;;;;16.52;48.10;102202.59;5029162;28;20033;-71
2022/10/27 08:56:29;;;;;;;6.82;3.65;;;;;;;16.77;46.86;102205.00;5028656;28;20603;-71
2022/10/27 08:58:55;;;;;;;4.68;3.17;;;;;;;16.99;46.56;102199.63;5027617;28;20120;-72
2022/10/27 09:01:39;;;;;;;8.98;3.45;;;;;;;17.42;46.11;102205.50;5019534;28;20493;-72
2022/10/27 09:04:43;;;;;;;9.23;2.85;;;;;;;17.12;44.56;102200.75;5027608;28;20483;-72
2022/10/27 09:07:25;;;;;;;5.13;3.05;;;;;;;16.91;45.77;102193.81;5027974;28;20049;-71
2022/10/27 09:09:58;;;;;;;6.65;3.38;;;;;;;17.21;45.40;102191.53;5029320;28;20029;-71
2022/10/27 09:12:30;;;;;;;8.82;3.55;;;;;;;17.68;45.04;102192.84;5011393;28;20069;-71
2022/10/27 09:15:07;;;;;;;4.68;3.00;;;;;;;17.82;43.91;102193.00;5026377;28;20036;-72
2022/10/27 09:17:40;;;;;;;10.60;2.67;;;;;;;17.29;44.25;102186.75;5010560;28;20111;-70
2022/10/27 09:20:13;;;;;;;7.00;3.85;;;;;;;17.10;45.35;102186.75;5026680;28;20493;-73
2022/10/27 09:22:41;;;;;;;4.63;3.30;;;;;;;17.07;46.24;102186.03;5024672;28;20045;-71
2022/10/27 09:25:15;;;;;;;5.25;2.90;;;;;;;17.32;45.16;102183.09;5029554;28;20041;-71
2022/10/27 09:27:42;;;;;;;5.80;3.28;;;;;;;17.32;45.36;102185.75;5008331;28;20049;-72
2022/10/27 09:30:12;;;;;;;11.45;2.97;;;;;;;17.45;45.05;102181.59;5028355;28;20033;-72
2022/10/27 09:32:40;;;;;;;7.75;3.70;;;;;;;16.98;45.40;102187.34;5024302;28;20087;-72
2022/10/27 09:35:12;;;;;;;7.63;3.90;;;;;;;17.60;44.69;102170.31;5028002;28;20647;-71
2022/10/27 09:37:41;;;;;;;4.32;3.22;;;;;;;17.58;45.14;102176.56;5009446;28;20052;-73
2022/10/27 09:40:21;;;;;;;8.70;4.22;;;;;;;17.92;44.09;102174.91;5028081;28;20336;-71
2022/10/27 09:42:50;;;;;;;10.32;3.22;;;;;;;17.89;43.79;102178.53;5025396;28;20045;-71
2022/10/27 09:45:22;;;;;;;6.13;3.75;;;;;;;17.63;43.93;102186.00;5028256;28;20063;-72
2022/10/27 09:47:54;;;;;;;6.90;3.80;;;;;;;17.58;44.61;102182.72;5025823;28;20052;-73
2022/10/27 09:50:42;;;;;;;7.97;3.58;;;;;;;17.77;43.58;102181.81;5012340;28;20495;-71
2022/10/27 09:53:41;;;;;;;5.38;2.92;;;;;;;18.33;43.74;102175.44;5026462;28;20046;-72
2022/10/27 09:56:11;;;;;;;8.50;3.60;;;;;;;18.33;43.12;102172.78;5027371;28;20021;-72
2022/10/27 09:58:48;;;;;;;4.28;3.45;;;;;;;18.79;42.75;102172.13;5025947;28;20045;-71
2022/10/27 10:01:13;;;;;;;6.32;3.28;;;;;;;18.76;42.69;102166.97;5009962;28;20060;-71
2022/10/27 10:03:50;;;;;;;6.45;2.78;;;;;;;18.54;42.35;102156.69;5025072;28;20454;-71
2022/10/27 10:06:27;;;;;;;6.57;4.00;;;;;;;19.08;41.66;102167.91;5026143;28;20441;-71
2022/10/27 10:08:52;;;;;;;8.98;3.63;;;;;;;19.23;41.41;102171.47;5027036;28;20581;-73
2022/10/27 10:11:22;;;;;;;8.52;3.60;;;;;;;19.28;41.27;102170.28;5014827;28;20106;-72
2022/10/27 10:14:02;;;;;;;6.65;3.20;;;;;;;19.97;39.46;102164.56;5023741;28;20188;-70
2022/10/27 10:16:28;;;;;;;8.32;2.72;;;;;;;19.68;39.17;102168.03;5009587;28;20493;-73
2022/10/27 10:19:00;;;;;;;8.57;3.08;;;;;;;19.99;39.92;102166.19;5025327;28;20064;-72
2022/10/27 10:21:43;;;;;;;4.53;2.67;;;;;;;20.15;39.28;102163.47;4995605;28;20504;-71
2022/10/27 10:24:16;;;;;;;4.35;2.10;;;;;;;19.62;39.99;102163.06;5025880;28;20057;-71
2022/10/27 10:26:46;;;;;;;7.15;3.03;;;;;;;20.04;39.49;102161.47;5024708;28;20083;-70
2022/10/27 10:29:32;;;;;;;8.18;3.70;;;;;;;19.48;39.81;102155.03;5009095;28;20470;-71
2022/10/27 10:32:22;;;;;;;3.20;1.77;;;;;;;19.75;39.88;102151.72;5025770;28;20048;-72
2022/10/27 10:34:48;;;;;;;6.18;2.53;;;;;;;19.71;39.90;102146.59;5008941;28;20037;-72
2022/10/27 10:37:29;;;;;;;6.63;2.35;;;;;;;19.55;40.03;102140.50;5024915;28;20617;-72
2022/10/27 10:39:54;;;;;;;3.75;2.20;;;;;;;19.33;40.50;102140.00;5027248;28;20033;-71
2022/10/27 10:42:20;;;;;;;4.22;1.90;;;;;;;19.12;40.71;102137.63;5024895;28;20411;-71
2022/10/27 10:44:45;;;;;;;3.78;2.17;;;;;;;19.15;40.75;102134.81;5028702;28;20394;-70
2022/10/27 10:47:24;;;;;;;3.92;2.05;;;;;;;18.95;41.23;102141.22;4996081;28;20406;-71
2022/10/27 10:49:54;;;;;;;2.15;1.58;;;;;;;18.95;41.28;102141.22;5025592;28;20382;-71
2022/10/27 10:52:23;;;;;;;4.30;1.40;;;;;;;19.13;40.89;102131.41;5009092;28;20040;-71
2022/10/27 10:54:48;;;;;;;6.78;2.67;;;;;;;19.19;40.54;102125.75;5026257;28;20037;-73
2022/10/27 10:57:41;;;;;;;4.65;1.20;;;;;;;19.21;40.67;102133.59;5024367;28;20152;-73
2022/10/27 11:00:14;;;;;;;4.30;1.20;;;;;;;19.25;40.61;102130.69;5026820;28;20398;-72
2022/10/27 11:02:40;;;;;;;2.08;1.13;;;;;;;19.23;40.49;102129.94;5022058;28;20068;-70
2022/10/27 11:05:12;;;;;;;4.00;0.93;;;;;;;19.35;39.91;102124.88;5007805;28;20072;-70
2022/10/27 11:07:39;;;;;;;5.68;0.98;;;;;;;19.11;40.25;102120.03;5023512;28;20056;-71
2022/10/27 11:10:16;;;;;;;3.83;1.27;;;;;;;18.60;41.52;102117.50;5024142;28;20245;-72
2022/10/27 11:12:58;;;;;;;5.00;1.02;;;;;;;18.69;41.88;102129.38;5024530;28;20139;-71
2022/10/27 11:15:24;;;;;;;;;;;;;;;18.76;40.93;102112.22;5007059;28;20028;-71
2022/10/27 11:17:53;;;;;;;4.25;0.95;;;;;;;18.92;41.44;102112.28;5039555;28;19928;-72
2022/10/27 11:20:28;;;;;;;3.33;1.30;;;;;;;18.92;41.12;102112.28;5014878;28;20026;-71
2022/10/27 11:22:55;;;;;;;4.70;1.00;;;;;;;19.14;40.57;102109.25;5015457;28;20049;-71
2022/10/27 11:25:39;;;;;;;3.28;1.20;;;;;;;19.03;40.69;102106.34;5023856;28;20552;-71
2022/10/27 11:28:34;;;;;;;5.13;1.75;;;;;;;19.12;41.19;102104.97;5023441;28;20052;-71
2022/10/27 11:31:08;;;;;;;4.25;1.17;;;;;;;18.93;41.35;102110.47;5009713;28;20045;-73
2022/10/27 11:33:44;;;;;;;4.55;1.40;;;;;;;18.66;41.25;102109.22;5024038;28;20328;-70